Time;durP1;ratioP1;P1;durP2;ratioP2;P2;SDS_P1;SDS_P2;PMS_P1;PMS_P2;Temp;Humidity;BMP_temperature;BMP_pressure;BME280_temperature;BME280_humidity;BME280_pressure;Samples;Min_cycle;Max_cycle;Signal;HPM_P1;HPM_P2
2023/06/02 00:00:07;;;;;;;2.20;2.00;;;11.70;99.90;;;;;;5040032;28;20486;-71
2023/06/02 00:02:34;;;;;;;135.37;122.07;;;11.70;99.90;;;;;;5038217;28;20437;-71
2023/06/02 00:05:02;;;;;;;2.90;2.80;;;11.60;1.00;;;;;;5037646;28;20421;-71
2023/06/02 00:07:29;;;;;;;6.68;5.28;;;11.60;1.00;;;;;;5039988;28;20444;-72
2023/06/02 00:09:56;;;;;;;155.90;120.45;;;11.70;1.00;;;;;;5039380;28;21070;-71
2023/06/02 00:12:27;;;;;;;0.70;0.70;;;11.70;99.90;;;;;;5044453;28;20512;-71
2023/06/02 00:14:54;;;;;;;0.80;0.80;;;11.60;99.90;;;;;;5071168;28;20483;-72
2023/06/02 00:17:21;;;;;;;0.55;0.55;;;11.60;1.00;;;;;;5032914;28;20457;-71
2023/06/02 00:19:50;;;;;;;4.47;4.15;;;11.60;99.90;;;;;;5063069;28;20996;-71
2023/06/02 00:22:17;;;;;;;0.68;0.47;;;11.60;1.00;;;;;;5039243;28;20461;-71
2023/06/02 00:24:47;;;;;;;2.30;0.70;;;11.60;99.90;;;;;;5044300;28;20429;-71
2023/06/02 00:27:19;;;;;;;38.53;35.55;;;11.60;99.90;;;;;;5039894;28;20430;-71
2023/06/02 00:29:51;;;;;;;765.70;612.13;;;11.60;99.90;;;;;;5031377;28;20429;-71
2023/06/02 00:32:17;;;;;;;18.90;17.50;;;11.60;99.90;;;;;;5038623;28;20429;-71
2023/06/02 00:34:44;;;;;;;0.22;0.22;;;11.60;99.90;;;;;;5072633;28;20524;-71
2023/06/02 00:37:11;;;;;;;47.73;43.07;;;11.60;1.00;;;;;;5039377;28;20437;-71
2023/06/02 00:39:38;;;;;;;15.05;13.68;;;11.60;99.90;;;;;;5036873;28;20436;-72
2023/06/02 00:42:05;;;;;;;124.63;111.63;;;11.60;1.00;;;;;;5039816;28;20521;-71
2023/06/02 00:44:32;;;;;;;365.98;327.98;;;11.50;99.90;;;;;;5041669;28;21553;-71
2023/06/02 00:46:59;;;;;;;0.80;0.50;;;11.50;99.90;;;;;;5075783;28;20508;-71
2023/06/02 00:49:26;;;;;;;0.30;0.30;;;11.40;17.90;;;;;;5069727;28;20927;-71
2023/06/02 00:51:53;;;;;;;0.70;0.65;;;11.40;33.50;;;;;;5038069;28;20428;-71
2023/06/02 00:54:20;;;;;;;0.55;0.55;;;11.40;1.00;;;;;;5037371;28;20425;-71
2023/06/02 00:56:47;;;;;;;1.00;0.87;;;11.40;1.00;;;;;;5039180;28;20433;-72
2023/06/02 00:59:15;;;;;;;0.10;0.10;;;11.40;1.00;;;;;;5038766;28;20455;-71
2023/06/02 01:01:48;;;;;;;154.88;129.30;;;11.30;1.00;;;;;;5034515;28;20524;-71
2023/06/02 01:04:19;;;;;;;2.28;2.13;;;11.30;1.00;;;;;;5072117;28;20815;-71
2023/06/02 01:06:48;;;;;;;0.40;0.40;;;11.30;1.00;;;;;;5038740;28;20433;-71
2023/06/02 01:09:16;;;;;;;0.40;0.40;;;11.20;52.40;;;;;;5040886;28;20847;-72
2023/06/02 01:11:45;;;;;;;0.95;0.93;;;11.20;98.00;;;;;;5043170;28;20432;-71
2023/06/02 01:14:12;;;;;;;0.20;0.20;;;11.20;99.90;;;;;;5040498;28;20425;-71
2023/06/02 01:16:39;;;;;;;149.73;133.50;;;11.10;99.90;;;;;;5039438;28;20445;-71
2023/06/02 01:19:13;;;;;;;0.30;0.30;;;11.00;99.90;;;;;;5041631;28;20819;-71
2023/06/02 01:21:47;;;;;;;0.38;0.38;;;11.00;99.90;;;;;;5038676;28;20437;-71
2023/06/02 01:24:14;;;;;;;0.40;0.40;;;11.00;99.90;;;;;;5036504;28;20437;-71
2023/06/02 01:26:41;;;;;;;0.40;0.40;;;11.00;99.90;;;;;;5071877;28;20761;-71
2023/06/02 01:29:08;;;;;;;0.47;0.47;;;11.00;99.90;;;;;;5036823;28;20506;-71
2023/06/02 01:31:46;;;;;;;0.20;0.20;;;11.00;99.90;;;;;;5037617;28;20517;-71
2023/06/02 01:34:27;;;;;;;0.75;0.75;;;10.90;99.90;;;;;;5041305;28;20444;-71
2023/06/02 01:36:56;;;;;;;1.70;1.65;;;10.90;99.90;;;;;;5040261;28;20499;-71
2023/06/02 01:39:28;;;;;;;4.30;3.90;;;10.90;99.90;;;;;;5041075;28;20944;-71
2023/06/02 01:41:56;;;;;;;0.30;0.30;;;10.90;99.90;;;;;;5035536;28;20431;-72
2023/06/02 01:44:24;;;;;;;0.47;0.43;;;10.80;99.90;;;;;;5039117;28;20464;-71
2023/06/02 01:46:51;;;;;;;0.60;0.60;;;10.90;99.90;;;;;;5039159;28;21256;-71
2023/06/02 01:49:18;;;;;;;45.17;41.25;;;10.90;99.90;;;;;;5040134;28;20757;-71
2023/06/02 01:51:45;;;;;;;0.47;0.37;;;10.80;99.90;;;;;;5040247;28;20429;-71
2023/06/02 01:54:12;;;;;;;0.63;0.63;;;10.80;99.90;;;;;;5044425;28;20491;-71
2023/06/02 01:56:39;;;;;;;0.50;0.50;;;10.80;99.90;;;;;;5045092;28;20429;-71
2023/06/02 01:59:07;;;;;;;0.30;0.30;;;10.80;99.90;;;;;;5040852;28;20510;-71
2023/06/02 02:01:34;;;;;;;0.30;0.30;;;10.70;99.90;;;;;;5042445;28;20803;-71
2023/06/02 02:04:01;;;;;;;245.85;220.73;;;10.70;99.90;;;;;;5041988;28;20440;-71
2023/06/02 02:06:30;;;;;;;21.00;19.55;;;10.60;99.90;;;;;;5042600;28;20912;-71
2023/06/02 02:08:58;;;;;;;6.20;5.70;;;10.50;99.90;;;;;;5041365;28;20431;-71
2023/06/02 02:11:27;;;;;;;1.15;0.75;;;10.50;99.90;;;;;;5046282;28;20429;-72
2023/06/02 02:13:57;;;;;;;53.83;49.53;;;10.50;99.90;;;;;;5043549;28;20435;-72
2023/06/02 02:16:26;;;;;;;1.20;1.20;;;10.40;99.90;;;;;;5044437;28;20464;-72
2023/06/02 02:18:56;;;;;;;0.40;0.40;;;10.40;99.90;;;;;;5042528;28;20433;-71
2023/06/02 02:21:23;;;;;;;1.57;1.47;;;10.40;99.90;;;;;;5031398;28;20464;-71
2023/06/02 02:23:56;;;;;;;0.50;0.50;;;10.40;99.90;;;;;;5033284;28;20433;-72
2023/06/02 02:26:25;;;;;;;3.60;3.30;;;10.40;99.90;;;;;;5040171;28;20437;-71
2023/06/02 02:28:51;;;;;;;0.25;0.25;;;10.30;99.90;;;;;;5073219;28;20421;-72
2023/06/02 02:31:18;;;;;;;104.30;95.22;;;10.40;99.90;;;;;;5044714;28;20460;-72
2023/06/02 02:33:45;;;;;;;15.30;13.97;;;10.30;99.90;;;;;;5042067;28;20499;-72
2023/06/02 02:36:12;;;;;;;181.98;163.95;;;10.30;99.90;;;;;;5043773;28;20691;-72
2023/06/02 02:38:39;;;;;;;0.90;0.50;;;10.30;99.90;;;;;;5039079;28;20436;-72
2023/06/02 02:41:06;;;;;;;65.50;58.80;;;10.20;99.90;;;;;;5040941;28;20935;-72
2023/06/02 02:43:33;;;;;;;128.38;113.13;;;10.20;99.90;;;;;;5043928;28;20461;-72
2023/06/02 02:46:00;;;;;;;0.68;0.68;;;10.20;99.90;;;;;;5043316;28;20441;-72
2023/06/02 02:48:27;;;;;;;0.13;0.13;;;10.20;99.90;;;;;;5043794;28;20420;-72
2023/06/02 02:50:54;;;;;;;0.17;0.17;;;10.10;99.90;;;;;;5041962;28;20426;-72
2023/06/02 02:53:21;;;;;;;0.20;0.20;;;10.00;99.90;;;;;;5041654;28;20945;-72
2023/06/02 02:55:50;;;;;;;0.47;0.47;;;9.90;99.90;;;;;;5043255;28;20428;-72
2023/06/02 02:58:18;;;;;;;0.80;0.50;;;9.90;99.90;;;;;;5042003;28;20561;-72
2023/06/02 03:00:45;;;;;;;0.30;0.30;;;9.80;99.90;;;;;;5042511;28;20444;-72
2023/06/02 03:03:12;;;;;;;0.77;0.77;;;9.80;99.90;;;;;;5043193;28;20900;-72
2023/06/02 03:05:41;;;;;;;0.30;0.30;;;9.80;99.90;;;;;;5043268;28;20463;-72
2023/06/02 03:08:09;;;;;;;1.20;1.13;;;9.70;99.90;;;;;;5040981;28;20432;-72
2023/06/02 03:10:36;;;;;;;10.25;9.30;;;9.80;99.90;;;;;;5041023;28;20443;-72
2023/06/02 03:13:03;;;;;;;1.20;1.08;;;9.80;99.90;;;;;;5045701;28;20429;-72
2023/06/02 03:15:30;;;;;;;0.20;0.20;;;9.90;99.90;;;;;;5041570;28;20439;-72
2023/06/02 03:18:03;;;;;;;1.20;0.77;;;9.90;99.90;;;;;;5039739;28;20452;-72
2023/06/02 03:20:31;;;;;;;0.40;0.40;;;10.00;99.90;;;;;;5042276;28;20428;-72
2023/06/02 03:22:58;;;;;;;0.43;0.43;;;10.10;99.90;;;;;;5043082;28;20440;-73
2023/06/02 03:25:28;;;;;;;31.95;28.52;;;10.00;99.90;;;;;;5040081;28;20510;-73
2023/06/02 03:27:55;;;;;;;437.53;394.70;;;10.00;99.90;;;;;;5042026;28;20551;-72
2023/06/02 03:30:23;;;;;;;0.30;0.30;;;10.00;99.90;;;;;;5038055;28;20531;-72
2023/06/02 03:32:50;;;;;;;1.92;0.38;;;10.00;99.90;;;;;;5039551;28;20817;-72
2023/06/02 03:35:20;;;;;;;1.10;1.00;;;9.90;99.90;;;;;;5042032;28;22507;-72
2023/06/02 03:37:47;;;;;;;0.77;0.40;;;9.90;99.90;;;;;;5073952;28;20448;-72
2023/06/02 03:40:14;;;;;;;0.50;0.50;;;9.80;99.90;;;;;;5039835;28;20526;-72
2023/06/02 03:42:40;;;;;;;1.30;0.90;;;9.80;99.90;;;;;;5041733;28;20421;-72
2023/06/02 03:45:08;;;;;;;6.05;5.55;;;9.90;99.90;;;;;;5041403;28;20479;-72
2023/06/02 03:47:35;;;;;;;0.40;0.40;;;9.90;99.90;;;;;;5040409;28;20448;-72
2023/06/02 03:50:02;;;;;;;0.60;0.30;;;9.90;99.90;;;;;;5040609;28;20429;-72
2023/06/02 03:52:30;;;;;;;0.70;0.70;;;10.00;99.90;;;;;;5074580;28;20433;-72
2023/06/02 03:54:57;;;;;;;1.50;0.40;;;10.00;99.90;;;;;;5040464;28;20999;-72
2023/06/02 03:57:25;;;;;;;0.40;0.30;;;10.00;99.90;;;;;;5043272;28;20440;-73
2023/06/02 03:59:52;;;;;;;2.60;0.50;;;9.90;99.90;;;;;;5038494;28;20552;-72
2023/06/02 04:02:18;;;;;;;0.70;0.60;;;9.90;99.90;;;;;;5036337;28;20437;-72
2023/06/02 04:04:46;;;;;;;1.10;0.47;;;10.00;99.90;;;;;;5042088;28;20468;-72
2023/06/02 04:07:13;;;;;;;0.73;0.73;;;10.00;99.90;;;;;;5039794;28;21240;-72
2023/06/02 04:09:39;;;;;;;0.60;0.60;;;10.10;99.90;;;;;;5072871;28;20460;-72
2023/06/02 04:12:09;;;;;;;0.65;0.57;;;10.10;99.90;;;;;;5044334;28;20464;-72
2023/06/02 04:14:36;;;;;;;1.45;0.43;;;10.10;99.90;;;;;;5041060;28;20974;-72
2023/06/02 04:17:04;;;;;;;0.50;0.50;;;10.10;99.90;;;;;;5042978;28;20441;-72
2023/06/02 04:19:31;;;;;;;0.63;0.63;;;10.20;99.90;;;;;;5042973;28;20432;-73
2023/06/02 04:21:58;;;;;;;7.00;4.30;;;10.40;99.90;;;;;;5040752;28;20480;-73
2023/06/02 04:24:27;;;;;;;1.13;1.03;;;10.50;99.90;;;;;;5068017;28;21021;-72
2023/06/02 04:26:53;;;;;;;0.93;0.70;;;10.60;99.90;;;;;;5034794;28;20437;-72
2023/06/02 04:29:20;;;;;;;0.20;0.20;;;10.80;99.90;;;;;;5040022;28;20436;-72
2023/06/02 04:31:47;;;;;;;0.50;0.50;;;11.00;99.90;;;;;;5039665;28;20437;-72
2023/06/02 04:34:15;;;;;;;0.70;0.70;;;11.10;99.90;;;;;;5041341;28;20425;-72
2023/06/02 04:36:42;;;;;;;0.45;0.45;;;11.20;99.90;;;;;;5040082;28;20431;-72
2023/06/02 04:39:09;;;;;;;0.80;0.80;;;11.30;99.90;;;;;;5039265;28;20440;-72
2023/06/02 04:41:36;;;;;;;0.70;0.50;;;11.70;99.90;;;;;;5041035;28;20815;-72
2023/06/02 04:44:05;;;;;;;1.00;1.00;;;12.20;99.90;;;;;;5040757;28;20429;-72
2023/06/02 04:46:32;;;;;;;7.50;1.27;;;12.60;1.00;;;;;;5040206;28;20989;-72
2023/06/02 04:49:07;;;;;;;0.50;0.50;;;13.20;99.90;;;;;;5043145;28;20436;-72
2023/06/02 04:51:34;;;;;;;0.90;0.73;;;13.70;99.90;;;;;;5042569;28;20921;-72
2023/06/02 04:54:01;;;;;;;2.75;0.55;;;14.00;99.90;;;;;;5042238;28;20469;-72
2023/06/02 04:56:32;;;;;;;0.93;0.80;;;14.00;99.90;;;;;;5040478;28;20524;-72
2023/06/02 04:59:01;;;;;;;0.40;0.40;;;13.80;99.90;;;;;;5039345;28;20432;-72
2023/06/02 05:01:28;;;;;;;0.35;0.35;;;13.40;99.90;;;;;;5039938;28;20433;-73
2023/06/02 05:03:55;;;;;;;1.00;0.57;;;13.20;99.90;;;;;;5036240;28;20433;-72
2023/06/02 05:06:25;;;;;;;0.68;0.68;;;13.30;99.90;;;;;;5041911;28;20812;-72
2023/06/02 05:08:55;;;;;;;0.80;0.68;;;13.50;99.90;;;;;;5040536;28;20968;-73
2023/06/02 05:11:23;;;;;;;1.10;0.57;;;13.50;99.90;;;;;;5043694;28;20437;-70
2023/06/02 05:13:49;;;;;;;0.73;0.57;;;13.50;99.90;;;;;;5037855;28;20804;-71
2023/06/02 05:16:20;;;;;;;0.50;0.50;;;13.50;99.90;;;;;;5041369;28;20829;-71
2023/06/02 05:18:47;;;;;;;2.55;0.80;;;13.30;99.90;;;;;;5039489;28;20520;-71
2023/06/02 05:21:14;;;;;;;0.60;0.60;;;13.30;99.90;;;;;;5039636;28;20437;-72
2023/06/02 05:23:41;;;;;;;1.30;1.10;;;13.70;99.90;;;;;;5040908;28;20644;-72
2023/06/02 05:26:08;;;;;;;0.60;0.60;;;14.60;99.90;;;;;;5039919;28;20429;-71
2023/06/02 05:28:34;;;;;;;0.80;0.80;;;15.60;99.90;;;;;;5047662;28;20492;-71
2023/06/02 05:31:02;;;;;;;1.13;1.13;;;15.70;99.90;;;;;;5041913;28;20494;-71
2023/06/02 05:33:30;;;;;;;2.95;1.10;;;15.20;99.90;;;;;;5040748;28;20486;-71
2023/06/02 05:35:57;;;;;;;0.90;0.90;;;14.50;99.90;;;;;;5040713;28;20473;-70
2023/06/02 05:38:24;;;;;;;0.93;0.93;;;13.90;99.90;;;;;;5039797;28;20472;-70
2023/06/02 05:40:51;;;;;;;1.55;0.85;;;13.70;99.90;;;;;;5043064;28;20433;-71
2023/06/02 05:43:18;;;;;;;1.52;1.42;;;13.50;99.90;;;;;;5042351;28;20467;-71
2023/06/02 05:45:44;;;;;;;1.25;1.00;;;13.40;99.90;;;;;;5040620;28;20457;-71
2023/06/02 05:48:11;;;;;;;0.70;0.70;;;13.50;99.90;;;;;;5069840;28;20510;-71
2023/06/02 05:50:40;;;;;;;1.10;1.05;;;13.70;99.90;;;;;;5035946;28;21134;-71
2023/06/02 05:53:10;;;;;;;0.82;0.52;;;14.30;99.90;;;;;;5041028;28;20468;-71
2023/06/02 05:55:37;;;;;;;1.00;0.90;;;14.70;99.90;;;;;;5038054;28;20686;-71
2023/06/02 05:58:07;;;;;;;0.40;0.40;;;14.90;99.90;;;;;;5038880;28;20440;-71
2023/06/02 06:00:34;;;;;;;0.70;0.60;;;15.00;99.90;;;;;;5034555;28;20498;-71
2023/06/02 06:03:04;;;;;;;1.30;0.90;;;14.70;99.90;;;;;;5035682;28;20927;-71
2023/06/02 06:05:31;;;;;;;0.95;0.93;;;14.60;99.90;;;;;;5070945;28;20947;-71
2023/06/02 06:08:00;;;;;;;0.90;0.90;;;14.20;99.90;;;;;;5040196;28;20890;-71
2023/06/02 06:10:27;;;;;;;0.30;0.30;;;14.20;99.90;;;;;;5039150;28;20464;-71
2023/06/02 06:12:57;;;;;;;0.95;0.93;;;14.00;99.90;;;;;;5042317;28;20519;-71
2023/06/02 06:15:24;;;;;;;4.30;1.30;;;13.90;99.90;;;;;;5039825;28;20856;-71
2023/06/02 06:17:52;;;;;;;1.00;1.00;;;13.60;99.90;;;;;;5041041;28;20870;-71
2023/06/02 06:20:20;;;;;;;0.50;0.50;;;13.70;99.90;;;;;;5040417;28;20440;-72
2023/06/02 06:22:47;;;;;;;0.60;0.60;;;14.10;99.90;;;;;;5056078;28;20499;-72
2023/06/02 06:25:13;;;;;;;0.85;0.70;;;14.40;99.90;;;;;;5052919;28;20510;-72
2023/06/02 06:27:41;;;;;;;0.47;0.47;;;14.90;99.90;;;;;;5026012;28;20823;-72
2023/06/02 06:30:08;;;;;;;2.00;1.30;;;15.60;99.90;;;;;;5064353;28;20456;-71
2023/06/02 06:32:35;;;;;;;0.70;0.57;;;16.00;99.90;;;;;;5040677;28;20512;-72
2023/06/02 06:35:03;;;;;;;2.28;1.17;;;16.40;99.90;;;;;;5038574;28;20437;-72
2023/06/02 06:37:31;;;;;;;1.70;0.77;;;16.90;99.90;;;;;;5042025;28;20428;-72
2023/06/02 06:39:58;;;;;;;1.52;0.65;;;17.20;99.90;;;;;;5043938;28;20508;-72
2023/06/02 06:42:25;;;;;;;0.75;0.75;;;17.50;99.90;;;;;;5041915;28;20425;-72
2023/06/02 06:44:52;;;;;;;1.63;0.90;;;17.40;99.90;;;;;;5043680;28;20457;-72
2023/06/02 06:47:19;;;;;;;1.30;0.50;;;17.50;99.90;;;;;;5076045;28;21018;-72
2023/06/02 06:49:45;;;;;;;2.93;0.87;;;18.00;99.90;;;;;;5043545;28;21162;-72
2023/06/02 06:52:12;;;;;;;0.43;0.43;;;18.30;99.90;;;;;;5043375;28;20515;-72
2023/06/02 06:54:42;;;;;;;2.15;1.00;;;18.30;99.90;;;;;;5041655;28;20428;-72
2023/06/02 06:57:10;;;;;;;0.93;0.90;;;18.10;99.90;;;;;;5043304;28;20868;-72
2023/06/02 06:59:41;;;;;;;0.50;0.50;;;17.90;99.90;;;;;;5040539;28;20425;-71
2023/06/02 07:02:08;;;;;;;0.80;0.50;;;17.90;99.90;;;;;;5042355;28;20518;-71
2023/06/02 07:04:41;;;;;;;3.00;0.30;;;18.00;99.90;;;;;;5040327;28;20429;-72
2023/06/02 07:07:08;;;;;;;0.80;0.80;;;18.20;99.90;;;;;;5040718;28;20428;-71
2023/06/02 07:09:35;;;;;;;0.95;0.85;;;18.20;99.90;;;;;;5041097;28;20429;-71
2023/06/02 07:12:02;;;;;;;0.30;0.30;;;18.00;99.90;;;;;;5046787;28;20436;-71
2023/06/02 07:14:29;;;;;;;1.27;0.75;;;17.80;99.60;;;;;;5041763;28;20433;-70
2023/06/02 07:16:55;;;;;;;2.70;0.80;;;17.50;98.80;;;;;;5043262;28;20475;-71
2023/06/02 07:19:23;;;;;;;0.52;0.52;;;17.90;99.70;;;;;;5074751;28;20451;-71
2023/06/02 07:21:51;;;;;;;2.60;0.77;;;18.60;99.90;;;;;;5040226;28;20520;-71
2023/06/02 07:24:21;;;;;;;1.35;0.68;;;19.30;99.90;;;;;;5040605;28;20524;-72
2023/06/02 07:26:47;;;;;;;2.80;1.10;;;20.00;99.90;;;;;;5043117;28;20421;-71
2023/06/02 07:29:14;;;;;;;0.60;0.60;;;20.30;99.90;;;;;;5038588;28;20534;-71
2023/06/02 07:31:43;;;;;;;0.68;0.68;;;20.60;99.90;;;;;;5039044;28;20810;-71
2023/06/02 07:34:10;;;;;;;1.97;0.63;;;20.80;99.90;;;;;;5045927;28;20464;-71
2023/06/02 07:36:38;;;;;;;0.80;0.80;;;20.80;99.90;;;;;;5041846;28;20433;-71
2023/06/02 07:39:05;;;;;;;1.00;1.00;;;20.60;99.90;;;;;;5041521;28;20440;-72
2023/06/02 07:41:35;;;;;;;0.50;0.50;;;20.40;99.90;;;;;;5039110;28;20455;-70
2023/06/02 07:44:01;;;;;;;1.02;1.02;;;20.40;99.90;;;;;;5039900;28;20444;-71
2023/06/02 07:46:28;;;;;;;0.80;0.80;;;20.10;99.50;;;;;;5040681;28;20479;-72
2023/06/02 07:48:57;;;;;;;1.30;0.85;;;19.80;98.70;;;;;;5041991;28;20421;-71
2023/06/02 07:51:25;;;;;;;2.60;0.67;;;20.00;98.80;;;;;;5039497;28;20516;-71
2023/06/02 07:53:52;;;;;;;2.65;0.38;;;19.20;96.40;;;;;;5040522;28;20440;-71
2023/06/02 07:56:20;;;;;;;0.43;0.43;;;19.50;96.70;;;;;;5042217;28;20437;-71
2023/06/02 07:58:47;;;;;;;1.52;1.05;;;19.00;95.20;;;;;;5037766;28;20440;-71
2023/06/02 08:01:17;;;;;;;0.32;0.32;;;19.20;95.20;;;;;;5037615;28;20446;-71
2023/06/02 08:03:44;;;;;;;0.57;0.57;;;19.20;95.10;;;;;;5038882;28;20434;-71
2023/06/02 08:06:11;;;;;;;0.57;0.57;;;19.10;94.70;;;;;;5040962;28;20916;-71
2023/06/02 08:08:37;;;;;;;0.50;0.50;;;19.50;96.40;;;;;;5042171;28;20491;-71
2023/06/02 08:11:04;;;;;;;2.47;0.65;;;19.90;97.10;;;;;;5044728;28;20425;-71
2023/06/02 08:13:31;;;;;;;0.40;0.40;;;20.10;97.50;;;;;;5040529;28;20487;-71
2023/06/02 08:16:00;;;;;;;3.25;1.40;;;20.20;97.40;;;;;;5037715;28;20600;-72
2023/06/02 08:18:48;;;;;;;0.68;0.68;;;20.00;96.70;;;;;;5064079;28;20433;-71
2023/06/02 08:21:15;;;;;;;0.88;0.88;;;20.60;98.00;;;;;;5037912;28;20521;-71
2023/06/02 08:23:42;;;;;;;2.33;1.13;;;20.60;98.50;;;;;;5038987;28;20808;-71
2023/06/02 08:26:09;;;;;;;1.00;1.00;;;20.70;98.00;;;;;;5036852;28;20463;-71
2023/06/02 08:28:37;;;;;;;0.93;0.93;;;20.10;96.20;;;;;;5059997;28;20497;-71
2023/06/02 08:31:07;;;;;;;0.70;0.70;;;19.70;94.60;;;;;;5029738;28;20489;-71
2023/06/02 08:33:35;;;;;;;0.70;0.70;;;19.90;95.10;;;;;;5031712;28;20439;-71
2023/06/02 08:36:06;;;;;;;0.73;0.73;;;19.60;94.50;;;;;;5029709;28;20529;-72
2023/06/02 08:38:33;;;;;;;0.73;0.73;;;19.80;94.70;;;;;;5030657;28;20460;-71
2023/06/02 08:41:00;;;;;;;1.35;1.25;;;20.40;96.20;;;;;;5032193;28;21005;-71
2023/06/02 08:43:27;;;;;;;0.50;0.50;;;20.50;95.90;;;;;;5027921;28;20447;-72
2023/06/02 08:45:57;;;;;;;0.70;0.70;;;20.40;95.40;;;;;;5031103;28;20444;-71
2023/06/02 08:48:24;;;;;;;0.80;0.80;;;20.40;95.90;;;;;;5028834;28;20440;-71
2023/06/02 08:50:53;;;;;;;0.73;0.73;;;20.40;95.20;;;;;;5062141;28;20915;-71
2023/06/02 08:53:23;;;;;;;1.13;0.70;;;20.20;94.00;;;;;;5033432;28;20436;-71
2023/06/02 08:55:50;;;;;;;0.60;0.60;;;20.10;93.60;;;;;;5031915;28;20499;-71
2023/06/02 08:58:20;;;;;;;0.73;0.73;;;19.90;93.20;;;;;;5032535;28;20429;-71
2023/06/02 09:00:48;;;;;;;0.70;0.57;;;19.90;92.90;;;;;;5029842;28;20438;-72
2023/06/02 09:03:15;;;;;;;2.70;0.95;;;19.90;92.90;;;;;;5030497;28;20489;-71
2023/06/02 09:05:45;;;;;;;0.63;0.63;;;19.90;93.20;;;;;;5031826;28;20431;-71
2023/06/02 09:08:14;;;;;;;0.73;0.73;;;20.10;99.90;;;;;;5030965;28;20483;-71
2023/06/02 09:10:41;;;;;;;1.50;0.37;;;20.10;93.50;;;;;;5032984;28;20435;-71
2023/06/02 09:13:09;;;;;;;0.70;0.70;;;20.20;93.70;;;;;;5033533;28;20555;-71
2023/06/02 09:15:56;;;;;;;0.80;0.80;;;20.00;92.90;;;;;;5030299;28;20437;-71
2023/06/02 09:18:26;;;;;;;0.80;0.80;;;20.40;93.70;;;;;;5031815;28;20479;-71
2023/06/02 09:20:54;;;;;;;0.55;0.55;;;20.40;93.80;;;;;;5031688;28;20437;-72
2023/06/02 09:23:21;;;;;;;1.13;1.05;;;20.30;93.60;;;;;;5032610;28;20438;-72
2023/06/02 09:25:48;;;;;;;2.60;1.13;;;20.50;94.10;;;;;;5035350;28;20425;-72
2023/06/02 09:28:14;;;;;;;6.32;1.33;;;20.70;94.40;;;;;;5037052;28;20817;-71
2023/06/02 09:30:41;;;;;;;2.03;0.93;;;20.60;94.20;;;;;;5035649;28;20437;-71
2023/06/02 09:33:14;;;;;;;0.80;0.80;;;20.90;94.70;;;;;;5037270;28;20487;-72
2023/06/02 09:35:45;;;;;;;0.60;0.60;;;20.80;94.30;;;;;;5031581;28;20571;-72
2023/06/02 09:38:16;;;;;;;0.53;0.53;;;21.00;95.10;;;;;;5033286;28;20434;-72
2023/06/02 09:40:44;;;;;;;3.10;0.70;;;21.20;95.40;;;;;;5034706;28;20518;-72
2023/06/02 09:43:16;;;;;;;0.30;0.30;;;21.20;95.20;;;;;;5035326;28;21200;-72
2023/06/02 09:45:48;;;;;;;0.80;0.70;;;21.00;94.70;;;;;;5032019;28;20439;-72
2023/06/02 09:48:27;;;;;;;0.90;0.80;;;20.90;94.40;;;;;;5033639;28;21028;-72
2023/06/02 09:50:55;;;;;;;1.50;0.77;;;20.80;93.80;;;;;;5061975;28;20435;-72
2023/06/02 09:53:25;;;;;;;12.45;0.90;;;20.80;94.10;;;;;;5034985;28;20490;-72
2023/06/02 09:55:51;;;;;;;0.82;0.73;;;20.90;94.40;;;;;;5032580;28;21148;-71
2023/06/02 09:58:19;;;;;;;0.50;0.50;;;21.10;94.20;;;;;;5031685;28;20435;-72
2023/06/02 10:00:46;;;;;;;3.25;1.13;;;21.10;99.90;;;;;;5031920;28;20433;-72
2023/06/02 10:03:12;;;;;;;0.50;0.50;;;21.20;94.30;;;;;;5034879;28;20524;-69
2023/06/02 10:05:46;;;;;;;3.75;0.40;;;21.00;93.60;;;;;;5032615;28;20512;-72
2023/06/02 10:08:21;;;;;;;0.40;0.40;;;20.60;92.20;;;;;;5035059;28;20452;-72
2023/06/02 10:11:21;;;;;;;0.60;0.60;;;21.00;93.50;;;;;;5069036;28;20520;-72
2023/06/02 10:14:01;;;;;;;0.68;0.68;;;21.00;93.70;;;;;;5037494;28;20524;-72
2023/06/02 10:16:40;;;;;;;0.40;0.40;;;20.30;91.20;;;;;;5037693;28;20436;-72
2023/06/02 10:19:47;;;;;;;1.30;0.90;;;20.20;91.00;;;;;;5067696;28;20524;-71
2023/06/02 10:22:45;;;;;;;0.60;0.40;;;20.20;91.00;;;;;;5039465;28;20523;-72
2023/06/02 10:25:33;;;;;;;0.85;0.85;;;20.20;91.00;;;;;;5038011;28;20918;-72
2023/06/02 10:28:03;;;;;;;15.50;1.02;;;20.60;92.40;;;;;;5037684;28;20433;-71
2023/06/02 10:30:30;;;;;;;0.77;0.65;;;20.80;92.90;;;;;;5037927;28;20818;-72
2023/06/02 10:32:57;;;;;;;0.60;0.60;;;20.60;91.70;;;;;;5038018;28;20883;-72
2023/06/02 10:35:58;;;;;;;0.57;0.57;;;20.80;92.80;;;;;;5034625;28;20425;-71
2023/06/02 10:38:28;;;;;;;1.90;1.20;;;21.10;93.20;;;;;;5034643;28;20952;-71
2023/06/02 10:40:58;;;;;;;0.50;0.47;;;21.30;94.10;;;;;;5038168;28;20438;-72
2023/06/02 10:43:25;;;;;;;0.30;0.30;;;21.30;93.50;;;;;;5036938;28;20533;-72
2023/06/02 10:45:55;;;;;;;2.83;1.20;;;21.50;94.20;;;;;;5038313;28;20552;-71
2023/06/02 10:48:40;;;;;;;0.53;0.53;;;21.90;95.60;;;;;;5039442;28;20510;-71
2023/06/02 10:51:16;;;;;;;0.95;0.95;;;21.80;95.00;;;;;;5039095;28;20441;-71
2023/06/02 10:53:59;;;;;;;0.60;0.60;;;22.00;95.40;;;;;;5039336;28;20471;-71
2023/06/02 10:56:43;;;;;;;0.50;0.50;;;22.20;95.50;;;;;;5037311;28;20487;-72
2023/06/02 10:59:29;;;;;;;1.40;0.80;;;22.00;95.00;;;;;;5038544;28;20433;-71
2023/06/02 11:01:56;;;;;;;0.67;0.67;;;22.10;95.70;;;;;;5038771;28;20475;-71
2023/06/02 11:04:35;;;;;;;0.65;0.65;;;22.00;95.30;;;;;;5033272;28;20846;-72
2023/06/02 11:07:23;;;;;;;0.80;0.80;;;22.10;95.50;;;;;;5037129;28;20436;-71
2023/06/02 11:09:53;;;;;;;0.57;0.57;;;21.90;95.20;;;;;;5037059;28;20947;-71
2023/06/02 11:12:50;;;;;;;0.57;0.57;;;21.30;93.40;;;;;;5041495;28;20516;-71
2023/06/02 11:15:21;;;;;;;0.77;0.77;;;21.40;93.50;;;;;;5038623;28;20769;-72
2023/06/02 11:17:48;;;;;;;3.10;0.65;;;21.80;94.00;;;;;;5032761;28;20812;-72
2023/06/02 11:20:17;;;;;;;9.18;0.88;;;22.20;95.50;;;;;;5067910;28;20452;-72
2023/06/02 11:22:44;;;;;;;1.65;1.08;;;22.50;96.50;;;;;;5037394;28;20427;-72
2023/06/02 11:25:14;;;;;;;1.63;1.10;;;23.00;97.40;;;;;;5029856;28;20801;-72
2023/06/02 11:27:46;;;;;;;0.93;0.82;;;23.10;97.80;;;;;;5033319;28;21206;-72
2023/06/02 11:30:18;;;;;;;0.60;0.60;;;22.90;97.10;;;;;;5032752;28;20461;-72
2023/06/02 11:32:48;;;;;;;2.73;1.07;;;22.90;99.90;;;;;;5036068;28;20425;-72
2023/06/02 11:35:27;;;;;;;0.30;0.30;;;22.70;95.90;;;;;;5035883;28;20453;-72
2023/06/02 11:38:06;;;;;;;0.38;0.38;;;22.60;98.70;;;;;;5035965;28;20536;-72
2023/06/02 11:40:36;;;;;;;3.95;0.60;;;22.60;95.60;;;;;;5064930;28;20521;-72
2023/06/02 11:43:03;;;;;;;0.60;0.60;;;22.90;96.30;;;;;;5037458;28;20487;-72
2023/06/02 11:45:30;;;;;;;1.10;0.70;;;22.60;95.70;;;;;;5037489;28;20467;-72
2023/06/02 11:47:59;;;;;;;0.70;0.70;;;22.70;95.80;;;;;;5033008;28;20954;-72
2023/06/02 11:50:31;;;;;;;0.50;0.50;;;22.80;96.00;;;;;;5030860;28;20809;-72
2023/06/02 11:52:58;;;;;;;1.00;0.70;;;22.70;95.50;;;;;;5036509;28;20486;-71
2023/06/02 11:55:30;;;;;;;0.60;0.60;;;22.90;96.40;;;;;;5041122;28;20936;-72
2023/06/02 11:58:17;;;;;;;0.47;0.47;;;22.80;95.50;;;;;;5037093;28;20449;-72
2023/06/02 12:00:44;;;;;;;4.13;1.10;;;22.80;95.70;;;;;;5040223;28;20779;-72
2023/06/02 12:03:12;;;;;;;3.70;0.77;;;22.50;94.80;;;;;;5039769;28;20436;-72
2023/06/02 12:05:43;;;;;;;1.33;0.52;;;22.30;94.10;;;;;;5040476;28;20772;-72
2023/06/02 12:08:22;;;;;;;0.80;0.80;;;22.50;94.70;;;;;;5036719;28;20433;-72
2023/06/02 12:10:49;;;;;;;0.35;0.35;;;22.80;95.20;;;;;;5036678;28;20437;-72
2023/06/02 12:13:31;;;;;;;0.80;0.80;;;22.90;95.50;;;;;;5040664;28;20540;-71
2023/06/02 12:16:19;;;;;;;2.40;1.40;;;22.60;94.60;;;;;;5072682;28;20483;-72
2023/06/02 12:18:47;;;;;;;0.90;0.50;;;22.40;93.70;;;;;;5033816;28;20435;-72
2023/06/02 12:21:25;;;;;;;9.50;0.57;;;22.50;93.10;;;;;;5039182;28;20519;-71
2023/06/02 12:23:53;;;;;;;0.90;0.50;;;22.80;93.30;;;;;;5040593;28;20429;-72
2023/06/02 12:26:21;;;;;;;930.10;764.28;;;23.00;93.90;;;;;;5039268;28;20429;-72
2023/06/02 12:28:50;;;;;;;998.80;839.65;;;23.30;94.60;;;;;;5036357;28;20440;-72
2023/06/02 12:31:17;;;;;;;950.58;771.08;;;22.60;92.70;;;;;;5033208;28;20442;-72
2023/06/02 12:33:45;;;;;;;948.70;771.05;;;23.10;93.60;;;;;;5030766;28;20464;-72
2023/06/02 12:36:12;;;;;;;884.10;723.90;;;23.20;93.50;;;;;;5031755;28;21117;-72
2023/06/02 12:38:41;;;;;;;946.53;763.53;;;22.50;91.60;;;;;;5027206;28;20447;-72
2023/06/02 12:41:11;;;;;;;961.78;779.78;;;22.40;90.70;;;;;;5030806;28;20485;-72
2023/06/02 12:43:39;;;;;;;980.88;795.45;;;22.30;90.50;;;;;;5031385;28;20768;-73
2023/06/02 12:46:07;;;;;;;984.13;798.17;;;22.20;89.90;;;;;;5032151;28;20433;-72
2023/06/02 12:48:34;;;;;;;963.72;777.40;;;22.30;90.00;;;;;;5030315;28;20445;-72
2023/06/02 12:51:04;;;;;;;968.42;780.33;;;22.20;89.60;;;;;;5030225;28;20514;-72
2023/06/02 12:53:34;;;;;;;961.22;797.53;;;22.20;88.90;;;;;;5031165;28;20723;-72